sensor_id;sensor_type;location;lat;lon;timestamp;P1;durP1;ratioP1;P2;durP2;ratioP2
20535;SDS011;10426;49.420;8.390;2023-05-14T00:01:02;4.00;;;3.70;;
20535;SDS011;10426;49.420;8.390;2023-05-14T00:03:29;3.95;;;3.72;;
20535;SDS011;10426;49.420;8.390;2023-05-14T00:05:57;4.45;;;4.05;;
20535;SDS011;10426;49.420;8.390;2023-05-14T00:08:23;4.70;;;4.30;;
20535;SDS011;10426;49.420;8.390;2023-05-14T00:10:50;6.30;;;4.75;;
20535;SDS011;10426;49.420;8.390;2023-05-14T00:13:17;9.63;;;4.90;;
20535;SDS011;10426;49.420;8.390;2023-05-14T00:15:44;4.93;;;4.53;;
20535;SDS011;10426;49.420;8.390;2023-05-14T00:18:10;4.90;;;4.40;;
20535;SDS011;10426;49.420;8.390;2023-05-14T00:20:37;5.82;;;4.43;;
20535;SDS011;10426;49.420;8.390;2023-05-14T00:23:05;4.67;;;4.27;;
20535;SDS011;10426;49.420;8.390;2023-05-14T00:25:31;4.72;;;4.38;;
20535;SDS011;10426;49.420;8.390;2023-05-14T00:27:58;4.28;;;3.88;;
20535;SDS011;10426;49.420;8.390;2023-05-14T00:30:25;4.50;;;4.07;;
20535;SDS011;10426;49.420;8.390;2023-05-14T00:32:51;5.15;;;4.20;;
20535;SDS011;10426;49.420;8.390;2023-05-14T00:35:18;5.05;;;4.65;;
20535;SDS011;10426;49.420;8.390;2023-05-14T00:37:45;5.20;;;4.80;;
20535;SDS011;10426;49.420;8.390;2023-05-14T00:40:13;5.18;;;4.78;;
20535;SDS011;10426;49.420;8.390;2023-05-14T00:42:40;4.60;;;4.30;;
20535;SDS011;10426;49.420;8.390;2023-05-14T00:45:07;5.20;;;4.80;;
20535;SDS011;10426;49.420;8.390;2023-05-14T00:47:33;4.95;;;4.10;;
20535;SDS011;10426;49.420;8.390;2023-05-14T00:50:01;6.07;;;4.30;;
20535;SDS011;10426;49.420;8.390;2023-05-14T00:52:27;4.25;;;3.92;;
20535;SDS011;10426;49.420;8.390;2023-05-14T00:54:54;4.95;;;3.92;;
20535;SDS011;10426;49.420;8.390;2023-05-14T00:57:23;4.25;;;3.85;;
20535;SDS011;10426;49.420;8.390;2023-05-14T00:59:50;3.88;;;3.55;;
20535;SDS011;10426;49.420;8.390;2023-05-14T01:02:16;3.67;;;3.38;;
20535;SDS011;10426;49.420;8.390;2023-05-14T01:04:43;3.67;;;3.42;;
20535;SDS011;10426;49.420;8.390;2023-05-14T01:07:11;4.03;;;3.60;;
20535;SDS011;10426;49.420;8.390;2023-05-14T01:09:43;3.33;;;3.13;;
20535;SDS011;10426;49.420;8.390;2023-05-14T01:12:14;3.55;;;3.35;;
20535;SDS011;10426;49.420;8.390;2023-05-14T01:14:45;3.45;;;3.17;;
20535;SDS011;10426;49.420;8.390;2023-05-14T01:17:13;3.08;;;2.88;;
20535;SDS011;10426;49.420;8.390;2023-05-14T01:19:44;3.30;;;2.90;;
20535;SDS011;10426;49.420;8.390;2023-05-14T01:22:13;2.92;;;2.75;;
20535;SDS011;10426;49.420;8.390;2023-05-14T01:24:40;3.10;;;2.90;;
20535;SDS011;10426;49.420;8.390;2023-05-14T01:27:09;3.10;;;2.90;;
20535;SDS011;10426;49.420;8.390;2023-05-14T01:29:37;3.05;;;2.95;;
20535;SDS011;10426;49.420;8.390;2023-05-14T01:32:05;3.20;;;2.90;;
20535;SDS011;10426;49.420;8.390;2023-05-14T01:34:33;3.28;;;3.08;;
20535;SDS011;10426;49.420;8.390;2023-05-14T01:37:00;3.60;;;3.40;;
20535;SDS011;10426;49.420;8.390;2023-05-14T01:39:29;3.85;;;3.65;;
20535;SDS011;10426;49.420;8.390;2023-05-14T01:41:56;4.10;;;3.85;;
20535;SDS011;10426;49.420;8.390;2023-05-14T01:44:24;3.80;;;3.60;;
20535;SDS011;10426;49.420;8.390;2023-05-14T01:46:51;3.80;;;3.50;;
20535;SDS011;10426;49.420;8.390;2023-05-14T01:49:18;3.72;;;3.53;;
20535;SDS011;10426;49.420;8.390;2023-05-14T01:51:44;3.47;;;3.28;;
20535;SDS011;10426;49.420;8.390;2023-05-14T01:54:11;3.77;;;3.40;;
20535;SDS011;10426;49.420;8.390;2023-05-14T01:56:39;3.70;;;3.47;;
20535;SDS011;10426;49.420;8.390;2023-05-14T01:59:05;3.70;;;3.40;;
20535;SDS011;10426;49.420;8.390;2023-05-14T02:01:32;3.80;;;3.50;;
20535;SDS011;10426;49.420;8.390;2023-05-14T02:03:59;3.67;;;3.38;;
20535;SDS011;10426;49.420;8.390;2023-05-14T02:06:26;3.60;;;3.30;;
20535;SDS011;10426;49.420;8.390;2023-05-14T02:08:52;3.40;;;3.20;;
20535;SDS011;10426;49.420;8.390;2023-05-14T02:11:19;3.55;;;3.30;;
20535;SDS011;10426;49.420;8.390;2023-05-14T02:13:47;3.90;;;3.35;;
20535;SDS011;10426;49.420;8.390;2023-05-14T02:16:14;3.60;;;3.40;;
20535;SDS011;10426;49.420;8.390;2023-05-14T02:18:40;3.53;;;3.33;;
20535;SDS011;10426;49.420;8.390;2023-05-14T02:21:07;4.00;;;3.70;;
20535;SDS011;10426;49.420;8.390;2023-05-14T02:23:33;4.32;;;4.00;;
20535;SDS011;10426;49.420;8.390;2023-05-14T02:26:00;4.20;;;3.80;;
20535;SDS011;10426;49.420;8.390;2023-05-14T02:28:27;4.38;;;4.00;;
20535;SDS011;10426;49.420;8.390;2023-05-14T02:30:58;4.23;;;3.93;;
20535;SDS011;10426;49.420;8.390;2023-05-14T02:33:25;4.45;;;4.05;;
20535;SDS011;10426;49.420;8.390;2023-05-14T02:35:52;4.07;;;3.80;;
20535;SDS011;10426;49.420;8.390;2023-05-14T02:38:18;4.50;;;4.10;;
20535;SDS011;10426;49.420;8.390;2023-05-14T02:40:45;4.43;;;4.20;;
20535;SDS011;10426;49.420;8.390;2023-05-14T02:43:12;5.37;;;4.97;;
20535;SDS011;10426;49.420;8.390;2023-05-14T02:45:38;5.32;;;4.82;;
20535;SDS011;10426;49.420;8.390;2023-05-14T02:48:06;5.70;;;5.20;;
20535;SDS011;10426;49.420;8.390;2023-05-14T02:50:33;5.35;;;4.95;;
20535;SDS011;10426;49.420;8.390;2023-05-14T02:52:59;6.25;;;5.75;;
20535;SDS011;10426;49.420;8.390;2023-05-14T02:55:26;6.72;;;6.22;;
20535;SDS011;10426;49.420;8.390;2023-05-14T02:57:53;7.18;;;6.53;;
20535;SDS011;10426;49.420;8.390;2023-05-14T03:00:19;7.80;;;7.10;;
20535;SDS011;10426;49.420;8.390;2023-05-14T03:02:46;8.07;;;7.28;;
20535;SDS011;10426;49.420;8.390;2023-05-14T03:05:14;8.27;;;7.57;;
20535;SDS011;10426;49.420;8.390;2023-05-14T03:07:41;8.23;;;7.63;;
20535;SDS011;10426;49.420;8.390;2023-05-14T03:10:08;8.18;;;7.47;;
20535;SDS011;10426;49.420;8.390;2023-05-14T03:12:34;8.27;;;7.57;;
20535;SDS011;10426;49.420;8.390;2023-05-14T03:15:01;8.33;;;7.37;;
20535;SDS011;10426;49.420;8.390;2023-05-14T03:17:28;8.00;;;7.30;;
20535;SDS011;10426;49.420;8.390;2023-05-14T03:19:54;7.53;;;6.78;;
20535;SDS011;10426;49.420;8.390;2023-05-14T03:22:22;7.50;;;6.97;;
20535;SDS011;10426;49.420;8.390;2023-05-14T03:24:49;10.03;;;7.83;;
20535;SDS011;10426;49.420;8.390;2023-05-14T03:27:16;8.00;;;7.20;;
20535;SDS011;10426;49.420;8.390;2023-05-14T03:29:42;7.93;;;7.18;;
20535;SDS011;10426;49.420;8.390;2023-05-14T03:32:09;7.63;;;7.03;;
20535;SDS011;10426;49.420;8.390;2023-05-14T03:34:35;8.25;;;7.45;;
20535;SDS011;10426;49.420;8.390;2023-05-14T03:37:02;7.60;;;6.90;;
20535;SDS011;10426;49.420;8.390;2023-05-14T03:39:30;8.52;;;7.75;;
20535;SDS011;10426;49.420;8.390;2023-05-14T03:41:57;8.82;;;8.02;;
20535;SDS011;10426;49.420;8.390;2023-05-14T03:44:23;7.35;;;6.65;;
20535;SDS011;10426;49.420;8.390;2023-05-14T03:46:50;7.30;;;6.70;;
20535;SDS011;10426;49.420;8.390;2023-05-14T03:49:17;7.50;;;6.80;;
20535;SDS011;10426;49.420;8.390;2023-05-14T03:51:43;7.53;;;6.78;;
20535;SDS011;10426;49.420;8.390;2023-05-14T03:54:10;7.60;;;7.00;;
20535;SDS011;10426;49.420;8.390;2023-05-14T03:56:38;7.65;;;6.97;;
20535;SDS011;10426;49.420;8.390;2023-05-14T03:59:04;7.50;;;6.78;;
20535;SDS011;10426;49.420;8.390;2023-05-14T04:01:31;7.35;;;6.65;;
20535;SDS011;10426;49.420;8.390;2023-05-14T04:03:57;7.80;;;7.10;;
20535;SDS011;10426;49.420;8.390;2023-05-14T04:06:24;7.47;;;6.77;;
20535;SDS011;10426;49.420;8.390;2023-05-14T04:08:51;7.22;;;6.40;;
20535;SDS011;10426;49.420;8.390;2023-05-14T04:11:18;6.90;;;6.30;;
20535;SDS011;10426;49.420;8.390;2023-05-14T04:13:47;6.80;;;6.30;;
20535;SDS011;10426;49.420;8.390;2023-05-14T04:16:13;6.90;;;6.40;;
20535;SDS011;10426;49.420;8.390;2023-05-14T04:18:40;7.13;;;6.57;;
20535;SDS011;10426;49.420;8.390;2023-05-14T04:21:06;6.88;;;6.38;;
20535;SDS011;10426;49.420;8.390;2023-05-14T04:23:33;6.85;;;6.35;;
20535;SDS011;10426;49.420;8.390;2023-05-14T04:26:00;7.50;;;6.80;;
20535;SDS011;10426;49.420;8.390;2023-05-14T04:28:26;7.47;;;6.80;;
20535;SDS011;10426;49.420;8.390;2023-05-14T04:30:54;6.90;;;6.30;;
20535;SDS011;10426;49.420;8.390;2023-05-14T04:33:21;7.10;;;6.57;;
20535;SDS011;10426;49.420;8.390;2023-05-14T04:35:47;7.30;;;6.75;;
20535;SDS011;10426;49.420;8.390;2023-05-14T04:38:14;7.10;;;6.55;;
20535;SDS011;10426;49.420;8.390;2023-05-14T04:40:40;7.88;;;7.07;;
20535;SDS011;10426;49.420;8.390;2023-05-14T04:43:07;7.40;;;6.80;;
20535;SDS011;10426;49.420;8.390;2023-05-14T04:45:34;7.00;;;6.50;;
20535;SDS011;10426;49.420;8.390;2023-05-14T04:48:03;7.30;;;6.57;;
20535;SDS011;10426;49.420;8.390;2023-05-14T04:50:32;7.40;;;6.90;;
20535;SDS011;10426;49.420;8.390;2023-05-14T04:52:58;7.03;;;6.50;;
20535;SDS011;10426;49.420;8.390;2023-05-14T04:55:25;6.75;;;6.25;;
20535;SDS011;10426;49.420;8.390;2023-05-14T04:57:52;7.20;;;6.60;;
20535;SDS011;10426;49.420;8.390;2023-05-14T05:00:18;6.60;;;6.10;;
20535;SDS011;10426;49.420;8.390;2023-05-14T05:02:46;7.30;;;6.50;;
20535;SDS011;10426;49.420;8.390;2023-05-14T05:05:14;6.75;;;6.20;;
20535;SDS011;10426;49.420;8.390;2023-05-14T05:07:40;7.43;;;6.82;;
20535;SDS011;10426;49.420;8.390;2023-05-14T05:10:07;6.70;;;6.20;;
20535;SDS011;10426;49.420;8.390;2023-05-14T05:12:34;7.20;;;6.40;;
20535;SDS011;10426;49.420;8.390;2023-05-14T05:15:00;6.68;;;6.18;;
20535;SDS011;10426;49.420;8.390;2023-05-14T05:17:27;7.13;;;6.47;;
20535;SDS011;10426;49.420;8.390;2023-05-14T05:19:54;7.28;;;6.60;;
20535;SDS011;10426;49.420;8.390;2023-05-14T05:22:22;7.80;;;6.63;;
20535;SDS011;10426;49.420;8.390;2023-05-14T05:24:49;7.40;;;6.70;;
20535;SDS011;10426;49.420;8.390;2023-05-14T05:27:15;7.50;;;6.70;;
20535;SDS011;10426;49.420;8.390;2023-05-14T05:29:42;7.33;;;6.63;;
20535;SDS011;10426;49.420;8.390;2023-05-14T05:32:09;7.82;;;7.07;;
20535;SDS011;10426;49.420;8.390;2023-05-14T05:34:35;7.35;;;6.82;;
20535;SDS011;10426;49.420;8.390;2023-05-14T05:37:02;7.53;;;6.93;;
20535;SDS011;10426;49.420;8.390;2023-05-14T05:39:31;7.50;;;6.67;;
20535;SDS011;10426;49.420;8.390;2023-05-14T05:41:59;7.40;;;6.70;;
20535;SDS011;10426;49.420;8.390;2023-05-14T05:44:26;7.65;;;6.95;;
20535;SDS011;10426;49.420;8.390;2023-05-14T05:46:52;7.28;;;6.75;;
20535;SDS011;10426;49.420;8.390;2023-05-14T05:49:21;7.32;;;6.65;;
20535;SDS011;10426;49.420;8.390;2023-05-14T05:51:47;7.93;;;7.18;;
20535;SDS011;10426;49.420;8.390;2023-05-14T05:54:14;6.85;;;6.25;;
20535;SDS011;10426;49.420;8.390;2023-05-14T05:56:42;6.55;;;6.05;;
20535;SDS011;10426;49.420;8.390;2023-05-14T05:59:09;6.60;;;6.10;;
20535;SDS011;10426;49.420;8.390;2023-05-14T06:01:35;6.95;;;6.45;;
20535;SDS011;10426;49.420;8.390;2023-05-14T06:04:02;6.90;;;6.40;;
20535;SDS011;10426;49.420;8.390;2023-05-14T06:06:30;7.00;;;6.40;;
20535;SDS011;10426;49.420;8.390;2023-05-14T06:08:57;7.40;;;6.70;;
20535;SDS011;10426;49.420;8.390;2023-05-14T06:11:23;7.03;;;6.53;;
20535;SDS011;10426;49.420;8.390;2023-05-14T06:13:52;7.18;;;6.47;;
20535;SDS011;10426;49.420;8.390;2023-05-14T06:16:19;7.07;;;6.35;;
20535;SDS011;10426;49.420;8.390;2023-05-14T06:18:45;7.07;;;6.38;;
20535;SDS011;10426;49.420;8.390;2023-05-14T06:21:12;6.88;;;6.28;;
20535;SDS011;10426;49.420;8.390;2023-05-14T06:23:39;7.00;;;6.30;;
20535;SDS011;10426;49.420;8.390;2023-05-14T06:26:05;7.05;;;6.35;;
20535;SDS011;10426;49.420;8.390;2023-05-14T06:28:32;7.40;;;6.20;;
20535;SDS011;10426;49.420;8.390;2023-05-14T06:31:00;7.22;;;6.60;;
20535;SDS011;10426;49.420;8.390;2023-05-14T06:33:26;7.38;;;6.28;;
20535;SDS011;10426;49.420;8.390;2023-05-14T06:35:55;6.65;;;5.93;;
20535;SDS011;10426;49.420;8.390;2023-05-14T06:38:22;7.07;;;6.57;;
20535;SDS011;10426;49.420;8.390;2023-05-14T06:40:48;6.45;;;6.00;;
20535;SDS011;10426;49.420;8.390;2023-05-14T06:43:16;7.05;;;6.55;;
20535;SDS011;10426;49.420;8.390;2023-05-14T06:45:42;7.07;;;6.57;;
20535;SDS011;10426;49.420;8.390;2023-05-14T06:48:10;7.07;;;6.57;;
20535;SDS011;10426;49.420;8.390;2023-05-14T06:50:37;7.20;;;6.57;;
20535;SDS011;10426;49.420;8.390;2023-05-14T06:53:04;7.00;;;6.45;;
20535;SDS011;10426;49.420;8.390;2023-05-14T06:55:30;7.13;;;6.60;;
20535;SDS011;10426;49.420;8.390;2023-05-14T06:57:57;6.80;;;6.40;;
20535;SDS011;10426;49.420;8.390;2023-05-14T07:00:24;7.32;;;6.65;;
20535;SDS011;10426;49.420;8.390;2023-05-14T07:02:50;7.32;;;6.65;;
20535;SDS011;10426;49.420;8.390;2023-05-14T07:05:18;6.60;;;6.20;;
20535;SDS011;10426;49.420;8.390;2023-05-14T07:07:45;6.80;;;6.20;;
20535;SDS011;10426;49.420;8.390;2023-05-14T07:10:11;6.50;;;6.00;;
20535;SDS011;10426;49.420;8.390;2023-05-14T07:12:38;6.50;;;5.90;;
20535;SDS011;10426;49.420;8.390;2023-05-14T07:15:05;6.93;;;6.30;;
20535;SDS011;10426;49.420;8.390;2023-05-14T07:17:32;6.60;;;6.00;;
20535;SDS011;10426;49.420;8.390;2023-05-14T07:19:59;6.53;;;6.03;;
20535;SDS011;10426;49.420;8.390;2023-05-14T07:22:27;6.32;;;5.72;;
20535;SDS011;10426;49.420;8.390;2023-05-14T07:24:53;6.32;;;5.90;;
20535;SDS011;10426;49.420;8.390;2023-05-14T07:27:20;8.00;;;5.78;;
20535;SDS011;10426;49.420;8.390;2023-05-14T07:29:46;5.97;;;5.47;;
20535;SDS011;10426;49.420;8.390;2023-05-14T07:32:13;6.10;;;5.60;;
20535;SDS011;10426;49.420;8.390;2023-05-14T07:34:40;6.25;;;5.65;;
20535;SDS011;10426;49.420;8.390;2023-05-14T07:37:06;7.78;;;6.10;;
20535;SDS011;10426;49.420;8.390;2023-05-14T07:39:34;6.43;;;5.57;;
20535;SDS011;10426;49.420;8.390;2023-05-14T07:42:01;6.18;;;5.57;;
20535;SDS011;10426;49.420;8.390;2023-05-14T07:44:28;5.90;;;5.22;;
20535;SDS011;10426;49.420;8.390;2023-05-14T07:46:54;5.85;;;5.20;;
20535;SDS011;10426;49.420;8.390;2023-05-14T07:49:21;7.95;;;6.28;;
20535;SDS011;10426;49.420;8.390;2023-05-14T07:51:47;6.00;;;5.50;;
20535;SDS011;10426;49.420;8.390;2023-05-14T07:54:14;5.88;;;5.32;;
20535;SDS011;10426;49.420;8.390;2023-05-14T07:56:42;5.93;;;5.43;;
20535;SDS011;10426;49.420;8.390;2023-05-14T07:59:09;6.40;;;5.80;;
20535;SDS011;10426;49.420;8.390;2023-05-14T08:01:35;7.63;;;5.57;;
20535;SDS011;10426;49.420;8.390;2023-05-14T08:04:02;6.25;;;5.50;;
20535;SDS011;10426;49.420;8.390;2023-05-14T08:06:29;6.63;;;5.30;;
20535;SDS011;10426;49.420;8.390;2023-05-14T08:08:55;6.03;;;5.53;;
20535;SDS011;10426;49.420;8.390;2023-05-14T08:11:22;5.88;;;5.38;;
20535;SDS011;10426;49.420;8.390;2023-05-14T08:13:50;5.43;;;5.03;;
20535;SDS011;10426;49.420;8.390;2023-05-14T08:16:16;6.20;;;5.60;;
20535;SDS011;10426;49.420;8.390;2023-05-14T08:18:43;5.60;;;5.20;;
20535;SDS011;10426;49.420;8.390;2023-05-14T08:21:09;5.97;;;5.25;;
20535;SDS011;10426;49.420;8.390;2023-05-14T08:23:36;5.28;;;4.78;;
20535;SDS011;10426;49.420;8.390;2023-05-14T08:26:03;4.97;;;4.47;;
20535;SDS011;10426;49.420;8.390;2023-05-14T08:28:29;4.72;;;4.22;;
20535;SDS011;10426;49.420;8.390;2023-05-14T08:30:57;4.70;;;4.30;;
20535;SDS011;10426;49.420;8.390;2023-05-14T08:33:24;5.07;;;4.75;;
20535;SDS011;10426;49.420;8.390;2023-05-14T08:35:51;4.93;;;4.47;;
20535;SDS011;10426;49.420;8.390;2023-05-14T08:38:18;4.97;;;4.67;;
20535;SDS011;10426;49.420;8.390;2023-05-14T08:40:46;5.18;;;4.70;;
20535;SDS011;10426;49.420;8.390;2023-05-14T08:43:12;5.03;;;4.35;;
20535;SDS011;10426;49.420;8.390;2023-05-14T08:45:40;4.40;;;4.10;;
20535;SDS011;10426;49.420;8.390;2023-05-14T08:48:08;5.10;;;4.60;;
20535;SDS011;10426;49.420;8.390;2023-05-14T08:50:39;6.70;;;4.80;;
20535;SDS011;10426;49.420;8.390;2023-05-14T08:53:06;4.70;;;4.40;;
20535;SDS011;10426;49.420;8.390;2023-05-14T08:55:32;4.28;;;4.03;;
20535;SDS011;10426;49.420;8.390;2023-05-14T08:57:59;4.53;;;4.22;;
20535;SDS011;10426;49.420;8.390;2023-05-14T09:00:26;4.15;;;3.90;;
20535;SDS011;10426;49.420;8.390;2023-05-14T09:02:53;4.27;;;4.00;;
20535;SDS011;10426;49.420;8.390;2023-05-14T09:05:21;4.03;;;3.83;;
20535;SDS011;10426;49.420;8.390;2023-05-14T09:07:48;3.97;;;3.78;;
20535;SDS011;10426;49.420;8.390;2023-05-14T09:10:15;4.40;;;4.10;;
20535;SDS011;10426;49.420;8.390;2023-05-14T09:12:42;4.45;;;4.18;;
20535;SDS011;10426;49.420;8.390;2023-05-14T09:15:09;4.30;;;3.90;;
20535;SDS011;10426;49.420;8.390;2023-05-14T09:17:36;4.22;;;3.92;;
20535;SDS011;10426;49.420;8.390;2023-05-14T09:20:02;4.28;;;4.00;;
20535;SDS011;10426;49.420;8.390;2023-05-14T09:22:31;4.10;;;3.90;;
20535;SDS011;10426;49.420;8.390;2023-05-14T09:25:01;4.90;;;4.50;;
20535;SDS011;10426;49.420;8.390;2023-05-14T09:27:29;4.25;;;4.05;;
20535;SDS011;10426;49.420;8.390;2023-05-14T09:30:00;4.10;;;3.80;;
20535;SDS011;10426;49.420;8.390;2023-05-14T09:32:33;4.40;;;4.20;;
20535;SDS011;10426;49.420;8.390;2023-05-14T09:35:07;4.45;;;4.15;;
20535;SDS011;10426;49.420;8.390;2023-05-14T09:37:36;4.50;;;4.10;;
20535;SDS011;10426;49.420;8.390;2023-05-14T09:40:04;3.88;;;3.67;;
20535;SDS011;10426;49.420;8.390;2023-05-14T09:42:31;4.40;;;4.00;;
20535;SDS011;10426;49.420;8.390;2023-05-14T09:44:58;4.60;;;3.88;;
20535;SDS011;10426;49.420;8.390;2023-05-14T09:47:24;4.50;;;4.20;;
20535;SDS011;10426;49.420;8.390;2023-05-14T09:49:51;4.20;;;3.90;;
20535;SDS011;10426;49.420;8.390;2023-05-14T09:52:18;4.40;;;4.10;;
20535;SDS011;10426;49.420;8.390;2023-05-14T09:54:46;3.97;;;3.67;;
20535;SDS011;10426;49.420;8.390;2023-05-14T09:57:13;4.10;;;3.90;;
20535;SDS011;10426;49.420;8.390;2023-05-14T09:59:40;4.13;;;3.83;;
20535;SDS011;10426;49.420;8.390;2023-05-14T10:02:06;3.92;;;3.72;;
20535;SDS011;10426;49.420;8.390;2023-05-14T10:04:40;3.88;;;3.58;;
20535;SDS011;10426;49.420;8.390;2023-05-14T10:07:07;4.28;;;3.88;;
20535;SDS011;10426;49.420;8.390;2023-05-14T10:09:33;4.30;;;3.90;;
20535;SDS011;10426;49.420;8.390;2023-05-14T10:12:02;3.78;;;3.58;;
20535;SDS011;10426;49.420;8.390;2023-05-14T10:14:31;4.03;;;3.67;;
20535;SDS011;10426;49.420;8.390;2023-05-14T10:16:59;3.90;;;3.60;;
20535;SDS011;10426;49.420;8.390;2023-05-14T10:19:27;4.00;;;3.60;;
20535;SDS011;10426;49.420;8.390;2023-05-14T10:21:56;3.47;;;3.17;;
20535;SDS011;10426;49.420;8.390;2023-05-14T10:24:26;3.60;;;3.40;;
20535;SDS011;10426;49.420;8.390;2023-05-14T10:26:52;4.27;;;3.63;;
20535;SDS011;10426;49.420;8.390;2023-05-14T10:29:20;3.45;;;3.25;;
20535;SDS011;10426;49.420;8.390;2023-05-14T10:31:56;3.45;;;3.15;;
20535;SDS011;10426;49.420;8.390;2023-05-14T10:34:35;3.40;;;3.20;;
20535;SDS011;10426;49.420;8.390;2023-05-14T10:37:03;3.70;;;3.40;;
20535;SDS011;10426;49.420;8.390;2023-05-14T10:39:40;3.70;;;3.40;;
20535;SDS011;10426;49.420;8.390;2023-05-14T10:42:07;3.43;;;3.20;;
20535;SDS011;10426;49.420;8.390;2023-05-14T10:44:35;3.30;;;3.20;;
20535;SDS011;10426;49.420;8.390;2023-05-14T10:47:04;3.25;;;3.00;;
20535;SDS011;10426;49.420;8.390;2023-05-14T10:49:32;3.50;;;3.30;;
20535;SDS011;10426;49.420;8.390;2023-05-14T10:51:59;3.40;;;3.20;;
20535;SDS011;10426;49.420;8.390;2023-05-14T10:54:26;3.10;;;2.90;;
20535;SDS011;10426;49.420;8.390;2023-05-14T10:56:53;2.90;;;2.80;;
20535;SDS011;10426;49.420;8.390;2023-05-14T10:59:19;3.03;;;2.83;;
20535;SDS011;10426;49.420;8.390;2023-05-14T11:01:51;3.00;;;2.80;;
20535;SDS011;10426;49.420;8.390;2023-05-14T11:04:18;3.47;;;3.17;;
20535;SDS011;10426;49.420;8.390;2023-05-14T11:06:45;3.00;;;2.80;;
20535;SDS011;10426;49.420;8.390;2023-05-14T11:09:12;3.03;;;2.80;;
20535;SDS011;10426;49.420;8.390;2023-05-14T11:11:40;3.00;;;2.90;;
20535;SDS011;10426;49.420;8.390;2023-05-14T11:14:08;3.00;;;2.90;;
20535;SDS011;10426;49.420;8.390;2023-05-14T11:16:34;2.80;;;2.70;;
20535;SDS011;10426;49.420;8.390;2023-05-14T11:19:03;3.00;;;2.80;;
20535;SDS011;10426;49.420;8.390;2023-05-14T11:21:30;2.70;;;2.60;;
20535;SDS011;10426;49.420;8.390;2023-05-14T11:23:58;3.20;;;2.73;;
20535;SDS011;10426;49.420;8.390;2023-05-14T11:26:24;2.90;;;2.80;;
20535;SDS011;10426;49.420;8.390;2023-05-14T11:28:51;3.00;;;2.80;;
20535;SDS011;10426;49.420;8.390;2023-05-14T11:31:18;3.10;;;2.83;;
20535;SDS011;10426;49.420;8.390;2023-05-14T11:33:44;2.93;;;2.73;;
20535;SDS011;10426;49.420;8.390;2023-05-14T11:36:12;2.85;;;2.70;;
20535;SDS011;10426;49.420;8.390;2023-05-14T11:38:44;2.88;;;2.67;;
20535;SDS011;10426;49.420;8.390;2023-05-14T11:41:13;3.30;;;3.10;;
20535;SDS011;10426;49.420;8.390;2023-05-14T11:43:39;2.92;;;2.83;;
20535;SDS011;10426;49.420;8.390;2023-05-14T11:46:06;3.20;;;3.00;;
20535;SDS011;10426;49.420;8.390;2023-05-14T11:48:33;3.00;;;2.80;;
20535;SDS011;10426;49.420;8.390;2023-05-14T11:51:00;2.90;;;2.80;;
20535;SDS011;10426;49.420;8.390;2023-05-14T11:53:28;3.15;;;2.95;;
20535;SDS011;10426;49.420;8.390;2023-05-14T11:55:55;2.90;;;2.80;;
20535;SDS011;10426;49.420;8.390;2023-05-14T11:58:22;3.15;;;3.00;;
20535;SDS011;10426;49.420;8.390;2023-05-14T12:00:49;3.60;;;3.40;;
20535;SDS011;10426;49.420;8.390;2023-05-14T12:03:17;2.90;;;2.70;;
20535;SDS011;10426;49.420;8.390;2023-05-14T12:05:53;2.50;;;2.40;;
20535;SDS011;10426;49.420;8.390;2023-05-14T12:08:20;3.80;;;2.85;;
20535;SDS011;10426;49.420;8.390;2023-05-14T12:10:48;2.70;;;2.50;;
20535;SDS011;10426;49.420;8.390;2023-05-14T12:13:15;2.83;;;2.63;;
20535;SDS011;10426;49.420;8.390;2023-05-14T12:15:43;3.10;;;2.90;;
20535;SDS011;10426;49.420;8.390;2023-05-14T12:18:10;3.00;;;2.80;;
20535;SDS011;10426;49.420;8.390;2023-05-14T12:20:36;3.17;;;3.08;;
20535;SDS011;10426;49.420;8.390;2023-05-14T12:23:03;2.90;;;2.80;;
20535;SDS011;10426;49.420;8.390;2023-05-14T12:25:30;2.95;;;2.80;;
20535;SDS011;10426;49.420;8.390;2023-05-14T12:27:58;2.77;;;2.67;;
20535;SDS011;10426;49.420;8.390;2023-05-14T12:30:25;3.17;;;3.00;;
20535;SDS011;10426;49.420;8.390;2023-05-14T12:32:51;2.72;;;2.60;;
20535;SDS011;10426;49.420;8.390;2023-05-14T12:35:19;2.70;;;2.60;;
20535;SDS011;10426;49.420;8.390;2023-05-14T12:37:45;2.70;;;2.50;;
20535;SDS011;10426;49.420;8.390;2023-05-14T12:40:12;2.92;;;2.63;;
20535;SDS011;10426;49.420;8.390;2023-05-14T12:42:41;3.30;;;3.10;;
20535;SDS011;10426;49.420;8.390;2023-05-14T12:45:09;2.75;;;2.55;;
20535;SDS011;10426;49.420;8.390;2023-05-14T12:47:36;3.20;;;2.90;;
20535;SDS011;10426;49.420;8.390;2023-05-14T12:50:03;3.10;;;2.90;;
20535;SDS011;10426;49.420;8.390;2023-05-14T12:52:30;2.80;;;2.70;;
20535;SDS011;10426;49.420;8.390;2023-05-14T12:54:56;2.65;;;2.45;;
20535;SDS011;10426;49.420;8.390;2023-05-14T12:57:23;2.70;;;2.60;;
20535;SDS011;10426;49.420;8.390;2023-05-14T12:59:51;2.72;;;2.63;;
20535;SDS011;10426;49.420;8.390;2023-05-14T13:02:19;3.30;;;2.67;;
20535;SDS011;10426;49.420;8.390;2023-05-14T13:04:46;2.70;;;2.50;;
20535;SDS011;10426;49.420;8.390;2023-05-14T13:07:12;2.40;;;2.30;;
20535;SDS011;10426;49.420;8.390;2023-05-14T13:09:39;2.47;;;2.37;;
20535;SDS011;10426;49.420;8.390;2023-05-14T13:12:06;3.97;;;2.55;;
20535;SDS011;10426;49.420;8.390;2023-05-14T13:14:32;2.60;;;2.40;;
20535;SDS011;10426;49.420;8.390;2023-05-14T13:17:00;2.63;;;2.53;;
20535;SDS011;10426;49.420;8.390;2023-05-14T13:19:28;2.45;;;2.35;;
20535;SDS011;10426;49.420;8.390;2023-05-14T13:21:55;2.60;;;2.40;;
20535;SDS011;10426;49.420;8.390;2023-05-14T13:24:22;3.00;;;2.80;;
20535;SDS011;10426;49.420;8.390;2023-05-14T13:26:49;8.02;;;3.20;;
20535;SDS011;10426;49.420;8.390;2023-05-14T13:29:15;2.67;;;2.58;;
20535;SDS011;10426;49.420;8.390;2023-05-14T13:31:42;2.60;;;2.50;;
20535;SDS011;10426;49.420;8.390;2023-05-14T13:34:09;2.40;;;2.30;;
20535;SDS011;10426;49.420;8.390;2023-05-14T13:36:37;2.40;;;2.20;;
20535;SDS011;10426;49.420;8.390;2023-05-14T13:39:04;2.60;;;2.50;;
20535;SDS011;10426;49.420;8.390;2023-05-14T13:41:30;2.45;;;2.25;;
20535;SDS011;10426;49.420;8.390;2023-05-14T13:43:59;2.30;;;2.20;;
20535;SDS011;10426;49.420;8.390;2023-05-14T13:46:25;2.20;;;2.10;;
20535;SDS011;10426;49.420;8.390;2023-05-14T13:48:52;2.28;;;2.17;;
20535;SDS011;10426;49.420;8.390;2023-05-14T13:51:19;2.22;;;2.13;;
20535;SDS011;10426;49.420;8.390;2023-05-14T13:53:47;2.15;;;2.05;;
20535;SDS011;10426;49.420;8.390;2023-05-14T13:56:13;2.10;;;2.00;;
20535;SDS011;10426;49.420;8.390;2023-05-14T13:58:40;2.00;;;1.90;;
20535;SDS011;10426;49.420;8.390;2023-05-14T14:01:07;1.90;;;1.90;;
20535;SDS011;10426;49.420;8.390;2023-05-14T14:03:33;2.40;;;2.00;;
20535;SDS011;10426;49.420;8.390;2023-05-14T14:06:00;2.00;;;1.90;;
20535;SDS011;10426;49.420;8.390;2023-05-14T14:08:26;2.20;;;2.10;;
20535;SDS011;10426;49.420;8.390;2023-05-14T14:10:54;2.00;;;1.90;;
20535;SDS011;10426;49.420;8.390;2023-05-14T14:13:21;2.13;;;2.03;;
20535;SDS011;10426;49.420;8.390;2023-05-14T14:15:48;2.00;;;1.90;;
20535;SDS011;10426;49.420;8.390;2023-05-14T14:18:14;2.05;;;1.95;;
20535;SDS011;10426;49.420;8.390;2023-05-14T14:20:41;3.10;;;2.38;;
20535;SDS011;10426;49.420;8.390;2023-05-14T14:23:07;2.00;;;1.90;;
20535;SDS011;10426;49.420;8.390;2023-05-14T14:25:34;2.05;;;1.90;;
20535;SDS011;10426;49.420;8.390;2023-05-14T14:28:02;1.95;;;1.85;;
20535;SDS011;10426;49.420;8.390;2023-05-14T14:30:29;1.95;;;1.95;;
20535;SDS011;10426;49.420;8.390;2023-05-14T14:32:55;2.00;;;1.90;;
20535;SDS011;10426;49.420;8.390;2023-05-14T14:35:22;2.00;;;1.90;;
20535;SDS011;10426;49.420;8.390;2023-05-14T14:37:48;1.90;;;1.90;;
20535;SDS011;10426;49.420;8.390;2023-05-14T14:40:18;2.20;;;2.10;;
20535;SDS011;10426;49.420;8.390;2023-05-14T14:42:44;2.00;;;2.00;;
20535;SDS011;10426;49.420;8.390;2023-05-14T14:45:12;2.35;;;2.25;;
20535;SDS011;10426;49.420;8.390;2023-05-14T14:47:41;1.95;;;1.90;;